sensor_id;sensor_type;location;lat;lon;timestamp;pressure;altitude;pressure_sealevel;temperature
59339;BMP280;45117;50.960;5.500;2023-05-10T00:00:45;99982.00;;;13.29
59339;BMP280;45117;50.960;5.500;2023-05-10T00:03:12;99989.47;;;13.24
59339;BMP280;45117;50.960;5.500;2023-05-10T00:05:38;99991.75;;;13.26
59339;BMP280;45117;50.960;5.500;2023-05-10T00:08:05;99988.38;;;13.22
59339;BMP280;45117;50.960;5.500;2023-05-10T00:10:31;99982.91;;;13.26
59339;BMP280;45117;50.960;5.500;2023-05-10T00:12:57;99981.25;;;13.28
59339;BMP280;45117;50.960;5.500;2023-05-10T00:15:24;99982.44;;;13.27
59339;BMP280;45117;50.960;5.500;2023-05-10T00:17:52;99987.00;;;13.30
59339;BMP280;45117;50.960;5.500;2023-05-10T00:20:18;99985.47;;;13.29
59339;BMP280;45117;50.960;5.500;2023-05-10T00:22:45;99982.25;;;13.21
59339;BMP280;45117;50.960;5.500;2023-05-10T00:25:12;99965.44;;;13.17
59339;BMP280;45117;50.960;5.500;2023-05-10T00:27:38;99975.66;;;13.22
59339;BMP280;45117;50.960;5.500;2023-05-10T00:30:06;99980.22;;;13.26
59339;BMP280;45117;50.960;5.500;2023-05-10T00:32:33;99974.81;;;13.26
59339;BMP280;45117;50.960;5.500;2023-05-10T00:35:00;99980.97;;;13.26
59339;BMP280;45117;50.960;5.500;2023-05-10T00:37:27;99975.22;;;13.24
59339;BMP280;45117;50.960;5.500;2023-05-10T00:39:54;99982.56;;;13.23
59339;BMP280;45117;50.960;5.500;2023-05-10T00:42:20;99987.94;;;13.23
59339;BMP280;45117;50.960;5.500;2023-05-10T00:44:47;99985.16;;;13.14
59339;BMP280;45117;50.960;5.500;2023-05-10T00:47:13;99992.91;;;13.25
59339;BMP280;45117;50.960;5.500;2023-05-10T00:49:40;99987.19;;;13.23
59339;BMP280;45117;50.960;5.500;2023-05-10T00:52:09;99987.63;;;13.21
59339;BMP280;45117;50.960;5.500;2023-05-10T00:54:36;99986.56;;;13.19
59339;BMP280;45117;50.960;5.500;2023-05-10T00:57:02;99982.69;;;13.20
59339;BMP280;45117;50.960;5.500;2023-05-10T00:59:29;99977.59;;;13.22
59339;BMP280;45117;50.960;5.500;2023-05-10T01:01:56;99986.56;;;13.19
59339;BMP280;45117;50.960;5.500;2023-05-10T01:04:23;99986.84;;;13.21
59339;BMP280;45117;50.960;5.500;2023-05-10T01:06:51;99982.38;;;13.18
59339;BMP280;45117;50.960;5.500;2023-05-10T01:09:19;99980.41;;;13.18
59339;BMP280;45117;50.960;5.500;2023-05-10T01:11:46;99981.19;;;13.19
59339;BMP280;45117;50.960;5.500;2023-05-10T01:14:13;99977.81;;;13.15
59339;BMP280;45117;50.960;5.500;2023-05-10T01:16:42;99978.91;;;13.17
59339;BMP280;45117;50.960;5.500;2023-05-10T01:19:12;99979.66;;;13.18
59339;BMP280;45117;50.960;5.500;2023-05-10T01:21:49;99983.13;;;13.18
59339;BMP280;45117;50.960;5.500;2023-05-10T01:24:40;99982.03;;;13.16
59339;BMP280;45117;50.960;5.500;2023-05-10T01:27:40;99985.91;;;13.15
59339;BMP280;45117;50.960;5.500;2023-05-10T01:30:44;99984.94;;;13.09
59339;BMP280;45117;50.960;5.500;2023-05-10T01:33:19;99984.59;;;13.07
59339;BMP280;45117;50.960;5.500;2023-05-10T01:35:54;99981.47;;;13.08
59339;BMP280;45117;50.960;5.500;2023-05-10T01:38:29;99991.50;;;13.08
59339;BMP280;45117;50.960;5.500;2023-05-10T01:41:07;99984.31;;;13.05
59339;BMP280;45117;50.960;5.500;2023-05-10T01:43:39;99990.09;;;13.03
59339;BMP280;45117;50.960;5.500;2023-05-10T01:46:11;99995.84;;;13.05
59339;BMP280;45117;50.960;5.500;2023-05-10T01:48:47;99989.47;;;12.99
59339;BMP280;45117;50.960;5.500;2023-05-10T01:51:18;99984.59;;;12.94
59339;BMP280;45117;50.960;5.500;2023-05-10T01:53:46;99990.66;;;12.98
59339;BMP280;45117;50.960;5.500;2023-05-10T01:56:15;99995.72;;;12.96
59339;BMP280;45117;50.960;5.500;2023-05-10T01:58:44;99998.06;;;12.94
59339;BMP280;45117;50.960;5.500;2023-05-10T02:01:14;99993.44;;;12.94
59339;BMP280;45117;50.960;5.500;2023-05-10T02:03:43;99997.53;;;12.99
59339;BMP280;45117;50.960;5.500;2023-05-10T02:06:10;99995.72;;;12.96
59339;BMP280;45117;50.960;5.500;2023-05-10T02:08:39;99997.84;;;12.88
59339;BMP280;45117;50.960;5.500;2023-05-10T02:11:07;99991.41;;;12.86
59339;BMP280;45117;50.960;5.500;2023-05-10T02:13:36;99995.16;;;12.88
59339;BMP280;45117;50.960;5.500;2023-05-10T02:16:05;99994.09;;;12.86
59339;BMP280;45117;50.960;5.500;2023-05-10T02:18:32;99995.38;;;12.81
59339;BMP280;45117;50.960;5.500;2023-05-10T02:21:02;99996.53;;;12.80
59339;BMP280;45117;50.960;5.500;2023-05-10T02:23:29;99996.88;;;12.82
59339;BMP280;45117;50.960;5.500;2023-05-10T02:25:57;100003.00;;;12.83
59339;BMP280;45117;50.960;5.500;2023-05-10T02:28:25;100011.97;;;12.80
59339;BMP280;45117;50.960;5.500;2023-05-10T02:30:53;99999.25;;;12.80
59339;BMP280;45117;50.960;5.500;2023-05-10T02:33:21;100007.00;;;12.78
59339;BMP280;45117;50.960;5.500;2023-05-10T02:35:48;100010.88;;;12.77
59339;BMP280;45117;50.960;5.500;2023-05-10T02:38:19;100011.72;;;12.74
59339;BMP280;45117;50.960;5.500;2023-05-10T02:40:47;100015.50;;;12.77
59339;BMP280;45117;50.960;5.500;2023-05-10T02:43:15;100009.69;;;12.78
59339;BMP280;45117;50.960;5.500;2023-05-10T02:45:47;100017.44;;;12.76
59339;BMP280;45117;50.960;5.500;2023-05-10T02:48:13;100018.63;;;12.75
59339;BMP280;45117;50.960;5.500;2023-05-10T02:50:42;100020.16;;;12.76
59339;BMP280;45117;50.960;5.500;2023-05-10T02:53:15;100011.41;;;12.72
59339;BMP280;45117;50.960;5.500;2023-05-10T02:55:45;100018.19;;;12.77
59339;BMP280;45117;50.960;5.500;2023-05-10T02:58:12;100022.47;;;12.74
59339;BMP280;45117;50.960;5.500;2023-05-10T03:00:39;100023.59;;;12.77
59339;BMP280;45117;50.960;5.500;2023-05-10T03:03:05;100015.16;;;12.75
59339;BMP280;45117;50.960;5.500;2023-05-10T03:05:32;100025.63;;;12.73
59339;BMP280;45117;50.960;5.500;2023-05-10T03:07:59;100025.19;;;12.74
59339;BMP280;45117;50.960;5.500;2023-05-10T03:10:30;100020.25;;;12.73
59339;BMP280;45117;50.960;5.500;2023-05-10T03:13:07;100022.63;;;12.71
59339;BMP280;45117;50.960;5.500;2023-05-10T03:15:42;100022.63;;;12.71
59339;BMP280;45117;50.960;5.500;2023-05-10T03:18:17;100017.25;;;12.71
59339;BMP280;45117;50.960;5.500;2023-05-10T03:20:47;100018.00;;;12.71
59339;BMP280;45117;50.960;5.500;2023-05-10T03:23:21;100022.63;;;12.71
59339;BMP280;45117;50.960;5.500;2023-05-10T03:25:50;100024.03;;;12.75
59339;BMP280;45117;50.960;5.500;2023-05-10T03:28:18;100019.50;;;12.72
59339;BMP280;45117;50.960;5.500;2023-05-10T03:30:46;100021.84;;;12.70
59339;BMP280;45117;50.960;5.500;2023-05-10T03:33:12;100023.03;;;12.69
59339;BMP280;45117;50.960;5.500;2023-05-10T03:35:39;100027.22;;;12.70
59339;BMP280;45117;50.960;5.500;2023-05-10T03:38:06;100019.94;;;12.71
59339;BMP280;45117;50.960;5.500;2023-05-10T03:40:32;100023.66;;;12.73
59339;BMP280;45117;50.960;5.500;2023-05-10T03:42:59;100027.34;;;12.66
59339;BMP280;45117;50.960;5.500;2023-05-10T03:45:27;100019.25;;;12.66
59339;BMP280;45117;50.960;5.500;2023-05-10T03:47:53;100023.13;;;12.65
59339;BMP280;45117;50.960;5.500;2023-05-10T03:50:20;100021.53;;;12.68
59339;BMP280;45117;50.960;5.500;2023-05-10T03:52:47;100023.03;;;12.69
59339;BMP280;45117;50.960;5.500;2023-05-10T03:55:13;100018.00;;;12.71
59339;BMP280;45117;50.960;5.500;2023-05-10T03:57:40;100024.53;;;12.70
59339;BMP280;45117;50.960;5.500;2023-05-10T04:00:08;100019.16;;;12.70
59339;BMP280;45117;50.960;5.500;2023-05-10T04:02:36;100013.00;;;12.70
59339;BMP280;45117;50.960;5.500;2023-05-10T04:05:02;100026.16;;;12.68
59339;BMP280;45117;50.960;5.500;2023-05-10T04:07:29;100024.44;;;12.74
59339;BMP280;45117;50.960;5.500;2023-05-10T04:09:55;100019.56;;;12.69
59339;BMP280;45117;50.960;5.500;2023-05-10T04:12:22;100039.53;;;12.71
59339;BMP280;45117;50.960;5.500;2023-05-10T04:14:48;100036.41;;;12.73
59339;BMP280;45117;50.960;5.500;2023-05-10T04:17:16;100032.63;;;12.70
59339;BMP280;45117;50.960;5.500;2023-05-10T04:19:44;100030.28;;;12.72
59339;BMP280;45117;50.960;5.500;2023-05-10T04:22:10;100032.63;;;12.70
59339;BMP280;45117;50.960;5.500;2023-05-10T04:24:37;100036.69;;;12.75
59339;BMP280;45117;50.960;5.500;2023-05-10T04:27:03;100033.19;;;12.78
59339;BMP280;45117;50.960;5.500;2023-05-10T04:29:30;100028.53;;;12.78
59339;BMP280;45117;50.960;5.500;2023-05-10T04:31:56;100035.13;;;12.77
59339;BMP280;45117;50.960;5.500;2023-05-10T04:34:23;100036.22;;;12.80
59339;BMP280;45117;50.960;5.500;2023-05-10T04:36:50;100035.69;;;12.85
59339;BMP280;45117;50.960;5.500;2023-05-10T04:39:17;100035.91;;;12.90
59339;BMP280;45117;50.960;5.500;2023-05-10T04:41:43;100040.53;;;12.90
59339;BMP280;45117;50.960;5.500;2023-05-10T04:44:10;100038.59;;;12.90
59339;BMP280;45117;50.960;5.500;2023-05-10T04:46:36;100038.19;;;12.92
59339;BMP280;45117;50.960;5.500;2023-05-10T04:49:03;100044.72;;;12.91
59339;BMP280;45117;50.960;5.500;2023-05-10T04:51:29;100048.19;;;12.91
59339;BMP280;45117;50.960;5.500;2023-05-10T04:53:57;100048.97;;;12.92
59339;BMP280;45117;50.960;5.500;2023-05-10T04:56:24;100045.47;;;12.91
59339;BMP280;45117;50.960;5.500;2023-05-10T04:58:50;100050.66;;;12.86
59339;BMP280;45117;50.960;5.500;2023-05-10T05:01:17;100060.00;;;12.81
59339;BMP280;45117;50.960;5.500;2023-05-10T05:03:43;100053.97;;;12.77
59339;BMP280;45117;50.960;5.500;2023-05-10T05:06:10;100049.00;;;12.76
59339;BMP280;45117;50.960;5.500;2023-05-10T05:08:36;100056.34;;;12.75
59339;BMP280;45117;50.960;5.500;2023-05-10T05:11:04;100052.13;;;12.74
59339;BMP280;45117;50.960;5.500;2023-05-10T05:13:31;100060.31;;;12.71
59339;BMP280;45117;50.960;5.500;2023-05-10T05:16:00;100066.22;;;12.65
59339;BMP280;45117;50.960;5.500;2023-05-10T05:18:26;100070.09;;;12.64
59339;BMP280;45117;50.960;5.500;2023-05-10T05:20:53;100077.50;;;12.60
59339;BMP280;45117;50.960;5.500;2023-05-10T05:23:19;100074.50;;;12.58
59339;BMP280;45117;50.960;5.500;2023-05-10T05:25:50;100085.28;;;12.58
59339;BMP280;45117;50.960;5.500;2023-05-10T05:28:18;100087.97;;;12.58
59339;BMP280;45117;50.960;5.500;2023-05-10T05:30:45;100084.50;;;12.58
59339;BMP280;45117;50.960;5.500;2023-05-10T05:33:13;100088.44;;;12.53
59339;BMP280;45117;50.960;5.500;2023-05-10T05:35:40;100085.44;;;12.51
59339;BMP280;45117;50.960;5.500;2023-05-10T05:38:08;100096.88;;;12.55
59339;BMP280;45117;50.960;5.500;2023-05-10T05:40:34;100086.94;;;12.52
59339;BMP280;45117;50.960;5.500;2023-05-10T05:43:01;100091.81;;;12.57
59339;BMP280;45117;50.960;5.500;2023-05-10T05:45:28;100093.00;;;12.56
59339;BMP280;45117;50.960;5.500;2023-05-10T05:47:55;100093.81;;;12.53
59339;BMP280;45117;50.960;5.500;2023-05-10T05:50:22;100096.22;;;12.51
59339;BMP280;45117;50.960;5.500;2023-05-10T05:52:48;100108.41;;;12.56
59339;BMP280;45117;50.960;5.500;2023-05-10T05:55:15;100106.13;;;12.54
59339;BMP280;45117;50.960;5.500;2023-05-10T05:57:41;100096.69;;;12.62
59339;BMP280;45117;50.960;5.500;2023-05-10T06:00:08;100102.25;;;12.55
59339;BMP280;45117;50.960;5.500;2023-05-10T06:02:36;100102.91;;;12.59
59339;BMP280;45117;50.960;5.500;2023-05-10T06:05:03;100102.41;;;12.64
59339;BMP280;45117;50.960;5.500;2023-05-10T06:07:30;100102.09;;;12.62
59339;BMP280;45117;50.960;5.500;2023-05-10T06:09:57;100094.75;;;12.63
59339;BMP280;45117;50.960;5.500;2023-05-10T06:12:23;100100.78;;;12.67
59339;BMP280;45117;50.960;5.500;2023-05-10T06:14:50;100101.47;;;12.71
59339;BMP280;45117;50.960;5.500;2023-05-10T06:17:16;100101.03;;;12.73
59339;BMP280;45117;50.960;5.500;2023-05-10T06:19:44;100106.97;;;12.80
59339;BMP280;45117;50.960;5.500;2023-05-10T06:22:11;100106.91;;;12.84
59339;BMP280;45117;50.960;5.500;2023-05-10T06:24:37;100113.44;;;12.83
59339;BMP280;45117;50.960;5.500;2023-05-10T06:27:03;100121.81;;;13.01
59339;BMP280;45117;50.960;5.500;2023-05-10T06:29:30;100123.53;;;13.08
59339;BMP280;45117;50.960;5.500;2023-05-10T06:31:56;100127.34;;;13.10
59339;BMP280;45117;50.960;5.500;2023-05-10T06:34:23;100133.25;;;13.05
59339;BMP280;45117;50.960;5.500;2023-05-10T06:36:51;100130.47;;;13.09
59339;BMP280;45117;50.960;5.500;2023-05-10T06:39:18;100143.81;;;13.12
59339;BMP280;45117;50.960;5.500;2023-05-10T06:41:44;100144.16;;;13.14
59339;BMP280;45117;50.960;5.500;2023-05-10T06:44:11;100145.56;;;13.19
59339;BMP280;45117;50.960;5.500;2023-05-10T06:46:38;100145.56;;;13.19
59339;BMP280;45117;50.960;5.500;2023-05-10T06:49:04;100137.91;;;13.17
59339;BMP280;45117;50.960;5.500;2023-05-10T06:51:31;100155.91;;;13.33
59339;BMP280;45117;50.960;5.500;2023-05-10T06:53:59;100164.44;;;13.19
59339;BMP280;45117;50.960;5.500;2023-05-10T06:56:26;100162.59;;;13.29
59339;BMP280;45117;50.960;5.500;2023-05-10T06:58:52;100171.25;;;13.23
59339;BMP280;45117;50.960;5.500;2023-05-10T07:01:19;100169.66;;;13.39
59339;BMP280;45117;50.960;5.500;2023-05-10T07:03:45;100174.31;;;13.38
59339;BMP280;45117;50.960;5.500;2023-05-10T07:06:12;100182.03;;;13.36
59339;BMP280;45117;50.960;5.500;2023-05-10T07:08:38;100184.63;;;13.40
59339;BMP280;45117;50.960;5.500;2023-05-10T07:11:07;100185.56;;;13.33
59339;BMP280;45117;50.960;5.500;2023-05-10T07:13:34;100187.25;;;13.43
59339;BMP280;45117;50.960;5.500;2023-05-10T07:16:01;100192.97;;;13.45
59339;BMP280;45117;50.960;5.500;2023-05-10T07:18:28;100187.56;;;13.45
59339;BMP280;45117;50.960;5.500;2023-05-10T07:20:54;100189.97;;;13.56
59339;BMP280;45117;50.960;5.500;2023-05-10T07:23:21;100195.00;;;13.54
59339;BMP280;45117;50.960;5.500;2023-05-10T07:25:48;100201.06;;;13.45
59339;BMP280;45117;50.960;5.500;2023-05-10T07:28:16;100200.63;;;13.47
59339;BMP280;45117;50.960;5.500;2023-05-10T07:30:43;100195.34;;;13.43
59339;BMP280;45117;50.960;5.500;2023-05-10T07:33:10;100203.84;;;13.54
59339;BMP280;45117;50.960;5.500;2023-05-10T07:35:37;100197.72;;;13.67
59339;BMP280;45117;50.960;5.500;2023-05-10T07:38:04;100197.63;;;13.70
59339;BMP280;45117;50.960;5.500;2023-05-10T07:40:31;100200.97;;;13.74
59339;BMP280;45117;50.960;5.500;2023-05-10T07:42:57;100203.28;;;13.89
59339;BMP280;45117;50.960;5.500;2023-05-10T07:45:26;100208.25;;;13.90
59339;BMP280;45117;50.960;5.500;2023-05-10T07:47:52;100202.72;;;13.94
59339;BMP280;45117;50.960;5.500;2023-05-10T07:50:19;100207.91;;;14.13
59339;BMP280;45117;50.960;5.500;2023-05-10T07:52:46;100205.41;;;14.19
59339;BMP280;45117;50.960;5.500;2023-05-10T07:55:12;100208.66;;;14.27
59339;BMP280;45117;50.960;5.500;2023-05-10T07:57:39;100210.78;;;14.32
59339;BMP280;45117;50.960;5.500;2023-05-10T08:00:06;100215.63;;;14.37
59339;BMP280;45117;50.960;5.500;2023-05-10T08:02:35;100214.56;;;14.34
59339;BMP280;45117;50.960;5.500;2023-05-10T08:05:02;100215.75;;;14.33
59339;BMP280;45117;50.960;5.500;2023-05-10T08:07:28;100217.91;;;14.38
59339;BMP280;45117;50.960;5.500;2023-05-10T08:09:55;100222.41;;;14.41
59339;BMP280;45117;50.960;5.500;2023-05-10T08:12:22;100228.81;;;14.48
59339;BMP280;45117;50.960;5.500;2023-05-10T08:14:48;100234.59;;;14.59
59339;BMP280;45117;50.960;5.500;2023-05-10T08:17:15;100231.97;;;14.68
59339;BMP280;45117;50.960;5.500;2023-05-10T08:19:42;100227.16;;;14.50
59339;BMP280;45117;50.960;5.500;2023-05-10T08:22:09;100231.59;;;14.57
59339;BMP280;45117;50.960;5.500;2023-05-10T08:24:36;100232.13;;;14.52
59339;BMP280;45117;50.960;5.500;2023-05-10T08:27:03;100239.91;;;14.50
59339;BMP280;45117;50.960;5.500;2023-05-10T08:29:30;100248.44;;;14.61
59339;BMP280;45117;50.960;5.500;2023-05-10T08:31:56;100240.25;;;14.52
59339;BMP280;45117;50.960;5.500;2023-05-10T08:34:23;100239.22;;;14.71
59339;BMP280;45117;50.960;5.500;2023-05-10T08:36:51;100247.28;;;14.49
59339;BMP280;45117;50.960;5.500;2023-05-10T08:39:18;100245.78;;;14.23
59339;BMP280;45117;50.960;5.500;2023-05-10T08:41:45;100253.81;;;14.01
59339;BMP280;45117;50.960;5.500;2023-05-10T08:44:13;100260.03;;;14.23
59339;BMP280;45117;50.960;5.500;2023-05-10T08:46:41;100258.28;;;14.29
59339;BMP280;45117;50.960;5.500;2023-05-10T08:49:11;100257.44;;;14.45
59339;BMP280;45117;50.960;5.500;2023-05-10T08:51:41;100257.19;;;14.52
59339;BMP280;45117;50.960;5.500;2023-05-10T08:54:11;100261.34;;;14.44
59339;BMP280;45117;50.960;5.500;2023-05-10T08:56:38;100272.16;;;14.19
59339;BMP280;45117;50.960;5.500;2023-05-10T08:59:04;100264.03;;;13.93
59339;BMP280;45117;50.960;5.500;2023-05-10T09:01:31;100271.25;;;14.22
59339;BMP280;45117;50.960;5.500;2023-05-10T09:03:58;100254.97;;;14.12
59339;BMP280;45117;50.960;5.500;2023-05-10T09:06:24;100274.72;;;14.22
59339;BMP280;45117;50.960;5.500;2023-05-10T09:08:52;100270.28;;;14.16
59339;BMP280;45117;50.960;5.500;2023-05-10T09:11:21;100278.50;;;14.12
59339;BMP280;45117;50.960;5.500;2023-05-10T09:13:48;100270.41;;;14.12
59339;BMP280;45117;50.960;5.500;2023-05-10T09:16:14;100283.25;;;14.08
59339;BMP280;45117;50.960;5.500;2023-05-10T09:18:41;100287.78;;;13.98
59339;BMP280;45117;50.960;5.500;2023-05-10T09:21:08;100276.91;;;14.02
59339;BMP280;45117;50.960;5.500;2023-05-10T09:23:35;100287.47;;;14.09
59339;BMP280;45117;50.960;5.500;2023-05-10T09:26:02;100284.31;;;13.98
59339;BMP280;45117;50.960;5.500;2023-05-10T09:28:32;100285.63;;;14.06
59339;BMP280;45117;50.960;5.500;2023-05-10T09:30:59;100283.59;;;14.35
59339;BMP280;45117;50.960;5.500;2023-05-10T09:33:25;100284.25;;;14.39
59339;BMP280;45117;50.960;5.500;2023-05-10T09:35:52;100284.78;;;14.47
59339;BMP280;45117;50.960;5.500;2023-05-10T09:38:19;100288.63;;;14.46
59339;BMP280;45117;50.960;5.500;2023-05-10T09:40:51;100293.50;;;14.64
59339;BMP280;45117;50.960;5.500;2023-05-10T09:43:19;100299.00;;;14.73
59339;BMP280;45117;50.960;5.500;2023-05-10T09:45:48;100305.75;;;14.43
59339;BMP280;45117;50.960;5.500;2023-05-10T09:48:15;100293.72;;;15.04
59339;BMP280;45117;50.960;5.500;2023-05-10T09:50:41;100302.28;;;15.24
59339;BMP280;45117;50.960;5.500;2023-05-10T09:53:08;100302.69;;;15.36
59339;BMP280;45117;50.960;5.500;2023-05-10T09:55:39;100300.09;;;15.54
59339;BMP280;45117;50.960;5.500;2023-05-10T09:58:07;100299.09;;;15.60
59339;BMP280;45117;50.960;5.500;2023-05-10T10:00:36;100310.84;;;15.45
59339;BMP280;45117;50.960;5.500;2023-05-10T10:03:04;100307.47;;;15.53
59339;BMP280;45117;50.960;5.500;2023-05-10T10:05:31;100309.72;;;15.55
59339;BMP280;45117;50.960;5.500;2023-05-10T10:07:59;100298.53;;;15.66
59339;BMP280;45117;50.960;5.500;2023-05-10T10:10:26;100304.09;;;15.71
59339;BMP280;45117;50.960;5.500;2023-05-10T10:12:53;100308.16;;;15.67
59339;BMP280;45117;50.960;5.500;2023-05-10T10:15:20;100307.22;;;15.60
59339;BMP280;45117;50.960;5.500;2023-05-10T10:17:48;100315.09;;;15.99
59339;BMP280;45117;50.960;5.500;2023-05-10T10:20:17;100313.72;;;15.94
59339;BMP280;45117;50.960;5.500;2023-05-10T10:22:44;100307.84;;;15.65
59339;BMP280;45117;50.960;5.500;2023-05-10T10:25:11;100315.59;;;15.84
59339;BMP280;45117;50.960;5.500;2023-05-10T10:27:45;100311.47;;;15.71
59339;BMP280;45117;50.960;5.500;2023-05-10T10:30:21;100319.41;;;15.65
59339;BMP280;45117;50.960;5.500;2023-05-10T10:33:06;100319.31;;;15.78
59339;BMP280;45117;50.960;5.500;2023-05-10T10:35:36;100316.75;;;15.74
59339;BMP280;45117;50.960;5.500;2023-05-10T10:38:03;100311.50;;;15.49
59339;BMP280;45117;50.960;5.500;2023-05-10T10:40:30;100324.69;;;15.47
59339;BMP280;45117;50.960;5.500;2023-05-10T10:42:58;100321.19;;;15.37
59339;BMP280;45117;50.960;5.500;2023-05-10T10:46:09;100310.47;;;15.33
59339;BMP280;45117;50.960;5.500;2023-05-10T10:48:36;100313.72;;;15.50
59339;BMP280;45117;50.960;5.500;2023-05-10T10:51:03;100315.44;;;15.57
59339;BMP280;45117;50.960;5.500;2023-05-10T10:53:30;100318.59;;;15.77
59339;BMP280;45117;50.960;5.500;2023-05-10T10:56:05;100311.75;;;15.73
59339;BMP280;45117;50.960;5.500;2023-05-10T10:58:33;100314.63;;;15.69
59339;BMP280;45117;50.960;5.500;2023-05-10T11:01:11;100319.38;;;15.87
59339;BMP280;45117;50.960;5.500;2023-05-10T11:03:38;100318.50;;;15.68
59339;BMP280;45117;50.960;5.500;2023-05-10T11:06:04;100318.59;;;15.77
59339;BMP280;45117;50.960;5.500;2023-05-10T11:08:32;100308.63;;;15.74
59339;BMP280;45117;50.960;5.500;2023-05-10T11:11:04;100325.13;;;15.98
59339;BMP280;45117;50.960;5.500;2023-05-10T11:13:33;100324.97;;;16.33
59339;BMP280;45117;50.960;5.500;2023-05-10T11:16:12;100314.44;;;16.35
59339;BMP280;45117;50.960;5.500;2023-05-10T11:18:39;100322.84;;;16.28
59339;BMP280;45117;50.960;5.500;2023-05-10T11:21:08;100317.75;;;16.30
59339;BMP280;45117;50.960;5.500;2023-05-10T11:23:48;100320.72;;;16.22
59339;BMP280;45117;50.960;5.500;2023-05-10T11:26:14;100324.16;;;16.63
59339;BMP280;45117;50.960;5.500;2023-05-10T11:28:41;100326.59;;;16.89
59339;BMP280;45117;50.960;5.500;2023-05-10T11:31:08;100322.06;;;16.76
59339;BMP280;45117;50.960;5.500;2023-05-10T11:33:43;100329.00;;;16.96
59339;BMP280;45117;50.960;5.500;2023-05-10T11:36:11;100327.47;;;16.67
59339;BMP280;45117;50.960;5.500;2023-05-10T11:38:37;100323.56;;;16.77
59339;BMP280;45117;50.960;5.500;2023-05-10T11:41:04;100329.00;;;16.96
59339;BMP280;45117;50.960;5.500;2023-05-10T11:43:30;100319.31;;;16.49
59339;BMP280;45117;50.960;5.500;2023-05-10T11:45:57;100323.78;;;16.34
59339;BMP280;45117;50.960;5.500;2023-05-10T11:48:24;100326.56;;;16.61
59339;BMP280;45117;50.960;5.500;2023-05-10T11:50:52;100321.31;;;16.67
59339;BMP280;45117;50.960;5.500;2023-05-10T11:53:22;100307.25;;;16.50
59339;BMP280;45117;50.960;5.500;2023-05-10T11:55:48;100326.28;;;16.68
59339;BMP280;45117;50.960;5.500;2023-05-10T11:58:15;100319.94;;;16.71
59339;BMP280;45117;50.960;5.500;2023-05-10T12:00:41;100329.47;;;17.22
59339;BMP280;45117;50.960;5.500;2023-05-10T12:03:08;100330.94;;;17.32
59339;BMP280;45117;50.960;5.500;2023-05-10T12:05:35;100334.88;;;17.40
59339;BMP280;45117;50.960;5.500;2023-05-10T12:08:13;100324.50;;;17.20
59339;BMP280;45117;50.960;5.500;2023-05-10T12:10:40;100326.72;;;17.49
59339;BMP280;45117;50.960;5.500;2023-05-10T12:13:11;100328.22;;;17.50
59339;BMP280;45117;50.960;5.500;2023-05-10T12:15:37;100337.09;;;17.60
59339;BMP280;45117;50.960;5.500;2023-05-10T12:18:04;100332.63;;;17.29
59339;BMP280;45117;50.960;5.500;2023-05-10T12:20:31;100334.75;;;17.34
59339;BMP280;45117;50.960;5.500;2023-05-10T12:22:58;100329.91;;;17.38
59339;BMP280;45117;50.960;5.500;2023-05-10T12:25:32;100332.94;;;17.13
59339;BMP280;45117;50.960;5.500;2023-05-10T12:28:00;100329.63;;;16.91
59339;BMP280;45117;50.960;5.500;2023-05-10T12:30:29;100340.63;;;17.33
59339;BMP280;45117;50.960;5.500;2023-05-10T12:33:00;100340.91;;;17.44
59339;BMP280;45117;50.960;5.500;2023-05-10T12:35:30;100336.19;;;17.63
59339;BMP280;45117;50.960;5.500;2023-05-10T12:37:57;100335.00;;;17.45
59339;BMP280;45117;50.960;5.500;2023-05-10T12:40:23;100340.09;;;17.62
59339;BMP280;45117;50.960;5.500;2023-05-10T12:42:51;100337.25;;;17.56
59339;BMP280;45117;50.960;5.500;2023-05-10T12:45:18;100340.34;;;17.91
59339;BMP280;45117;50.960;5.500;2023-05-10T12:47:45;100347.41;;;17.98
59339;BMP280;45117;50.960;5.500;2023-05-10T12:50:11;100345.38;;;18.64
59339;BMP280;45117;50.960;5.500;2023-05-10T12:52:38;100350.75;;;18.73
59339;BMP280;45117;50.960;5.500;2023-05-10T12:55:05;100352.13;;;18.54
59339;BMP280;45117;50.960;5.500;2023-05-10T12:57:31;100352.94;;;18.36
59339;BMP280;45117;50.960;5.500;2023-05-10T12:59:59;100349.19;;;19.20
59339;BMP280;45117;50.960;5.500;2023-05-10T13:02:26;100350.59;;;18.77
59339;BMP280;45117;50.960;5.500;2023-05-10T13:04:52;100354.78;;;19.02
59339;BMP280;45117;50.960;5.500;2023-05-10T13:07:19;100353.84;;;19.05
59339;BMP280;45117;50.960;5.500;2023-05-10T13:09:45;100349.06;;;19.15
59339;BMP280;45117;50.960;5.500;2023-05-10T13:12:12;100354.81;;;18.78
59339;BMP280;45117;50.960;5.500;2023-05-10T13:14:38;100361.34;;;18.71
59339;BMP280;45117;50.960;5.500;2023-05-10T13:17:07;100356.97;;;18.50
59339;BMP280;45117;50.960;5.500;2023-05-10T13:19:34;100355.00;;;18.51
59339;BMP280;45117;50.960;5.500;2023-05-10T13:22:01;100352.38;;;18.80
59339;BMP280;45117;50.960;5.500;2023-05-10T13:24:27;100354.06;;;18.78
59339;BMP280;45117;50.960;5.500;2023-05-10T13:26:54;100358.69;;;18.86
59339;BMP280;45117;50.960;5.500;2023-05-10T13:29:20;100354.44;;;18.85
59339;BMP280;45117;50.960;5.500;2023-05-10T13:31:47;100363.94;;;18.90
59339;BMP280;45117;50.960;5.500;2023-05-10T13:34:15;100358.16;;;18.73
59339;BMP280;45117;50.960;5.500;2023-05-10T13:36:45;100355.78;;;18.42
59339;BMP280;45117;50.960;5.500;2023-05-10T13:39:12;100359.44;;;18.87
59339;BMP280;45117;50.960;5.500;2023-05-10T13:41:38;100358.22;;;18.88
59339;BMP280;45117;50.960;5.500;2023-05-10T13:44:05;100360.13;;;18.72
59339;BMP280;45117;50.960;5.500;2023-05-10T13:46:31;100363.88;;;18.75
59339;BMP280;45117;50.960;5.500;2023-05-10T13:48:58;100355.03;;;18.41
59339;BMP280;45117;50.960;5.500;2023-05-10T13:51:25;100356.53;;;18.42
59339;BMP280;45117;50.960;5.500;2023-05-10T13:53:52;100365.44;;;18.43
59339;BMP280;45117;50.960;5.500;2023-05-10T13:56:19;100375.00;;;18.62
59339;BMP280;45117;50.960;5.500;2023-05-10T13:58:45;100369.81;;;18.17
59339;BMP280;45117;50.960;5.500;2023-05-10T14:01:12;100364.41;;;18.07
59339;BMP280;45117;50.960;5.500;2023-05-10T14:03:39;100359.91;;;18.37